Time;durP1;ratioP1;P1;durP2;ratioP2;P2;SDS_P1;SDS_P2;PMS_P1;PMS_P2;Temp;Humidity;BMP_temperature;BMP_pressure;BME280_temperature;BME280_humidity;BME280_pressure;Samples;Min_cycle;Max_cycle;Signal;HPM_P1;HPM_P2
2021/09/14 00:01:06;;;;;;;6.07;5.77;;;;;;;14.32;90.01;95614.88;5040214;28;20309;-69
2021/09/14 00:03:35;;;;;;;5.33;4.93;;;;;;;14.16;90.48;95608.16;5043178;28;20229;-70
2021/09/14 00:06:03;;;;;;;4.30;4.00;;;;;;;14.06;90.39;95607.78;5046409;28;20311;-69
2021/09/14 00:08:31;;;;;;;3.83;3.63;;;;;;;13.97;90.03;95609.00;5039672;28;20654;-69
2021/09/14 00:11:00;;;;;;;3.90;3.70;;;;;;;13.91;90.36;95608.00;5045230;28;20246;-69
2021/09/14 00:13:28;;;;;;;2.53;2.43;;;;;;;13.90;90.84;95603.72;5039225;28;20248;-69
2021/09/14 00:15:58;;;;;;;3.87;3.57;;;;;;;13.86;91.17;95611.25;5045499;28;20258;-69
2021/09/14 00:18:26;;;;;;;5.60;3.97;;;;;;;13.87;91.71;95604.13;5020008;28;20223;-69
2021/09/14 00:20:54;;;;;;;3.20;2.90;;;;;;;13.89;91.78;95596.78;5040669;28;20692;-69
2021/09/14 00:23:23;;;;;;;3.20;3.00;;;;;;;13.92;91.96;95605.16;5045655;28;20273;-69
2021/09/14 00:25:51;;;;;;;3.90;3.60;;;;;;;13.93;91.96;95598.81;5044109;28;20288;-69
2021/09/14 00:28:19;;;;;;;4.93;4.63;;;;;;;13.95;91.89;95602.06;5044362;28;20222;-69
2021/09/14 00:30:47;;;;;;;4.97;4.67;;;;;;;13.90;92.19;95604.53;5021085;28;20223;-69
2021/09/14 00:33:19;;;;;;;4.53;4.27;;;;;;;13.85;91.71;95606.97;5042002;28;20980;-70
2021/09/14 00:35:47;;;;;;;4.83;4.53;;;;;;;13.81;91.40;95600.47;5019475;28;20238;-68
2021/09/14 00:38:15;;;;;;;5.37;4.90;;;;;;;13.77;90.52;95598.41;5044371;28;20314;-70
2021/09/14 00:40:43;;;;;;;3.27;3.17;;;;;;;13.64;90.57;95588.66;5042149;28;20583;-69
2021/09/14 00:43:18;;;;;;;3.77;3.53;;;;;;;13.60;90.67;95598.00;5046987;28;20326;-69
2021/09/14 00:45:47;;;;;;;3.63;3.47;;;;;;;13.58;90.99;95584.16;5024278;28;20230;-69
2021/09/14 00:48:17;;;;;;;5.17;4.83;;;;;;;13.57;91.79;95593.13;5049341;28;20222;-70
2021/09/14 00:50:45;;;;;;;5.20;4.80;;;;;;;13.55;92.26;95584.56;5041208;28;20450;-69
2021/09/14 00:53:15;;;;;;;3.00;2.80;;;;;;;13.53;92.42;95586.59;5041294;28;20683;-69
2021/09/14 00:55:44;;;;;;;3.47;3.30;;;;;;;13.53;92.30;95583.94;5043449;28;20234;-69
2021/09/14 00:58:12;;;;;;;3.43;3.23;;;;;;;13.52;92.36;95582.31;5042297;28;20624;-69
2021/09/14 01:00:42;;;;;;;4.43;4.20;;;;;;;13.51;92.46;95578.84;5038678;28;20732;-69
2021/09/14 01:03:11;;;;;;;3.40;3.23;;;;;;;13.54;92.75;95585.59;5023253;28;20313;-69
2021/09/14 01:05:41;;;;;;;3.33;3.23;;;;;;;13.53;92.88;95586.59;5019573;28;20223;-69
2021/09/14 01:08:09;;;;;;;3.40;3.20;;;;;;;13.55;93.06;95580.06;5036268;28;20244;-69
2021/09/14 01:10:38;;;;;;;4.87;4.57;;;;;;;13.54;93.29;95577.63;5023060;28;20236;-69
2021/09/14 01:13:05;;;;;;;3.63;3.43;;;;;;;13.56;93.26;95583.53;5037734;28;20723;-68
2021/09/14 01:15:33;;;;;;;4.63;4.40;;;;;;;13.54;93.01;95577.63;5019649;28;20235;-69
2021/09/14 01:18:03;;;;;;;5.07;4.77;;;;;;;13.50;92.96;95577.22;5035631;28;20215;-69
2021/09/14 01:20:31;;;;;;;6.43;6.03;;;;;;;13.40;92.50;95581.28;5037390;28;20313;-69
2021/09/14 01:23:02;;;;;;;5.93;5.53;;;;;;;13.37;92.72;95580.69;5019532;28;20579;-69
2021/09/14 01:25:31;;;;;;;4.50;4.30;;;;;;;13.34;92.57;95581.06;5038180;28;20231;-68
2021/09/14 01:28:02;;;;;;;2.90;2.80;;;;;;;13.29;92.49;95580.06;5020454;28;20237;-69
2021/09/14 01:30:34;;;;;;;3.07;2.90;;;;;;;13.21;92.77;95583.72;5038482;28;20229;-68
2021/09/14 01:33:04;;;;;;;3.83;3.63;;;;;;;13.13;92.68;95578.56;5037176;28;20215;-69
2021/09/14 01:35:38;;;;;;;3.93;3.73;;;;;;;13.06;92.59;95583.03;5040356;28;20233;-69
2021/09/14 01:38:13;;;;;;;4.00;3.80;;;;;;;13.01;92.72;95582.84;5035114;28;20223;-69
2021/09/14 01:40:47;;;;;;;4.97;4.57;;;;;;;12.99;92.75;95574.28;5027437;28;20222;-69
2021/09/14 01:43:16;;;;;;;3.70;3.50;;;;;;;12.98;92.98;95585.88;5039169;28;20222;-69
2021/09/14 01:45:44;;;;;;;5.70;5.30;;;;;;;12.97;92.88;95576.28;5020382;28;20234;-69
2021/09/14 01:48:22;;;;;;;6.17;5.67;;;;;;;12.97;93.19;95576.28;5023028;28;20442;-69
2021/09/14 01:50:50;;;;;;;4.97;4.67;;;;;;;12.95;93.52;95570.38;5040091;28;20225;-69
2021/09/14 01:53:20;;;;;;;4.47;4.27;;;;;;;12.97;93.64;95577.09;5018729;28;20226;-69
2021/09/14 01:55:49;;;;;;;4.57;4.23;;;;;;;13.02;93.87;95579.16;5039835;28;20218;-69
2021/09/14 01:58:18;;;;;;;4.50;4.30;;;;;;;13.05;93.96;95576.94;5038521;28;20338;-69
2021/09/14 02:00:56;;;;;;;3.83;3.53;;;;;;;13.07;94.11;95582.00;5032110;28;20215;-69
2021/09/14 02:03:32;;;;;;;4.97;4.67;;;;;;;13.05;93.96;95578.75;5027182;28;20723;-69
2021/09/14 02:40:28;;;;;;;5.17;4.83;;;;;;;12.59;94.08;95576.81;5030098;28;20249;-69
2021/09/14 02:43:09;;;;;;;3.67;3.37;;;;;;;12.59;93.93;95574.16;5034113;28;20267;-70
2021/09/14 02:59:38;;;;;;;3.37;3.17;;;;;;;12.42;94.05;95567.56;5018990;28;20219;-70
2021/09/14 03:02:08;;;;;;;4.10;3.80;;;;;;;12.34;93.73;95570.38;5019785;28;20302;-69
2021/09/14 03:04:36;;;;;;;4.30;4.00;;;;;;;12.22;93.44;95565.66;5036887;28;20230;-70
2021/09/14 03:07:04;;;;;;;3.80;3.60;;;;;;;12.03;93.68;95563.72;5022907;28;20337;-69
2021/09/14 03:09:38;;;;;;;5.90;5.43;;;;;;;11.95;94.02;95566.53;5040447;28;20225;-70
2021/09/14 03:12:08;;;;;;;3.27;3.07;;;;;;;11.97;94.13;95567.13;5025729;28;20226;-69
2021/09/14 03:14:44;;;;;;;4.20;4.00;;;;;;;12.01;94.15;95571.03;5023731;28;20248;-69
2021/09/14 03:17:15;;;;;;;4.53;4.30;;;;;;;12.05;94.18;95566.97;5028757;28;20569;-69
2021/09/14 03:19:43;;;;;;;4.33;4.13;;;;;;;12.09;94.21;95573.53;5025470;28;20226;-69
2021/09/14 03:22:11;;;;;;;4.27;3.97;;;;;;;12.15;93.92;95561.34;5041306;28;20679;-69
2021/09/14 03:24:40;;;;;;;2.83;2.73;;;;;;;12.09;93.95;95562.94;5042006;28;20282;-68
2021/09/14 03:27:09;;;;;;;4.07;3.87;;;;;;;12.07;93.99;95570.28;5041448;28;20218;-69
2021/09/14 03:29:37;;;;;;;4.07;3.77;;;;;;;12.01;93.96;95560.47;5021311;28;20226;-69
2021/09/14 03:32:07;;;;;;;5.00;4.73;;;;;;;11.95;93.82;95555.94;5022233;28;20781;-69
2021/09/14 03:34:37;;;;;;;4.03;3.83;;;;;;;11.90;93.60;95563.66;5023660;28;20230;-69
2021/09/14 03:37:05;;;;;;;4.10;3.90;;;;;;;11.89;93.55;95567.31;5025722;28;20305;-69
2021/09/14 03:39:33;;;;;;;3.97;3.77;;;;;;;11.86;93.41;95562.41;5025164;28;20218;-69
2021/09/14 03:42:05;;;;;;;4.67;4.10;;;;;;;11.78;93.71;95559.88;5039429;28;20229;-69
2021/09/14 03:44:34;;;;;;;4.10;3.77;;;;;;;11.76;93.78;95557.41;5022224;28;20759;-70
2021/09/14 03:47:02;;;;;;;6.80;6.40;;;;;;;11.77;93.97;95553.75;5042114;28;20245;-69
2021/09/14 03:49:35;;;;;;;5.83;5.47;;;;;;;11.75;94.36;95554.97;5021754;28;20222;-69
2021/09/14 03:52:04;;;;;;;6.73;6.10;;;;;;;11.67;95.07;95556.75;5023157;28;20219;-69
2021/09/14 03:54:32;;;;;;;6.33;5.93;;;;;;;11.63;95.30;95549.41;5039589;28;20785;-68
2021/09/14 03:57:01;;;;;;;5.90;5.53;;;;;;;11.60;95.21;95547.94;5023598;28;20389;-69
2021/09/14 03:59:29;;;;;;;4.67;4.37;;;;;;;11.64;95.21;95543.13;5040169;28;20289;-68
2021/09/14 04:01:59;;;;;;;4.67;4.43;;;;;;;11.67;95.01;95554.09;5024904;28;20461;-69
2021/09/14 04:04:37;;;;;;;3.20;3.03;;;;;;;11.72;94.93;95552.72;5039453;28;20226;-69
2021/09/14 04:07:22;;;;;;;3.97;3.67;;;;;;;11.75;95.00;95549.69;5023127;28;20225;-69
2021/09/14 04:09:52;;;;;;;4.40;4.13;;;;;;;11.82;95.27;95546.13;5039618;28;20210;-69
2021/09/14 04:12:22;;;;;;;4.43;4.10;;;;;;;11.91;95.56;95554.72;5040407;28;20242;-69
2021/09/14 04:14:50;;;;;;;4.10;3.90;;;;;;;12.00;95.74;95550.09;5039082;28;20226;-69
2021/09/14 04:17:20;;;;;;;5.57;5.17;;;;;;;12.09;95.92;95552.38;5022377;28;20720;-69
2021/09/14 04:19:48;;;;;;;3.80;3.60;;;;;;;12.12;96.12;95546.69;5037468;28;20313;-69
2021/09/14 04:22:17;;;;;;;4.47;4.20;;;;;;;12.19;96.32;95550.19;5039533;28;20236;-69
2021/09/14 04:24:46;;;;;;;5.60;5.30;;;;;;;12.30;96.58;95547.97;5045050;28;20961;-69
2021/09/14 04:27:15;;;;;;;5.67;5.27;;;;;;;12.35;96.64;95551.69;5019470;28;20253;-69
2021/09/14 04:29:44;;;;;;;5.27;4.90;;;;;;;12.38;96.73;95550.47;5025720;28;20241;-68
2021/09/14 04:32:12;;;;;;;5.13;4.83;;;;;;;12.41;96.79;95550.06;5043642;28;20317;-69
2021/09/14 04:34:40;;;;;;;4.33;4.10;;;;;;;12.44;96.62;95549.69;5027471;28;20771;-67
2021/09/14 04:37:09;;;;;;;4.70;4.40;;;;;;;12.46;96.84;95552.94;5028109;28;20269;-67
2021/09/14 04:39:38;;;;;;;4.23;4.00;;;;;;;12.48;96.70;95553.56;5026849;28;20735;-67
2021/09/14 04:42:06;;;;;;;3.70;3.50;;;;;;;12.49;96.81;95555.19;5026005;28;20233;-66
2021/09/14 04:44:34;;;;;;;3.97;3.77;;;;;;;12.51;96.85;95550.50;5020348;28;20241;-67
2021/09/14 04:47:03;;;;;;;5.80;5.40;;;;;;;12.51;96.69;95550.50;5029914;28;20214;-67
2021/09/14 04:49:32;;;;;;;5.80;5.40;;;;;;;12.49;96.58;95557.81;5014195;28;20225;-67
2021/09/14 04:52:03;;;;;;;4.17;3.87;;;;;;;12.48;96.45;95554.38;5024984;28;20223;-67
2021/09/14 04:54:33;;;;;;;4.47;4.17;;;;;;;12.49;96.29;95555.19;5025996;28;20238;-67
2021/09/14 04:57:04;;;;;;;3.77;3.57;;;;;;;12.48;96.00;95553.56;5021167;28;20297;-67
2021/09/14 04:59:32;;;;;;;4.67;4.27;;;;;;;12.48;95.84;95554.38;5026024;28;20218;-67
2021/09/14 05:02:01;;;;;;;3.97;3.77;;;;;;;12.50;95.76;95554.16;5025177;28;20222;-66
2021/09/14 05:04:29;;;;;;;4.47;4.17;;;;;;;12.51;95.46;95550.50;5038459;28;20232;-67
2021/09/14 05:06:57;;;;;;;4.03;3.73;;;;;;;12.52;95.12;95557.44;5040891;28;20280;-66
2021/09/14 05:09:25;;;;;;;4.50;4.20;;;;;;;12.53;94.94;95553.78;5027352;28;20219;-67
2021/09/14 05:11:53;;;;;;;3.90;3.70;;;;;;;12.57;94.63;95559.50;5026741;28;20326;-66
2021/09/14 05:14:23;;;;;;;2.80;2.60;;;;;;;12.56;94.44;95558.69;5026393;28;20870;-67
2021/09/14 05:17:05;;;;;;;4.17;3.90;;;;;;;12.61;94.15;95544.81;5023746;28;20227;-67
2021/09/14 05:19:45;;;;;;;4.13;3.83;;;;;;;12.64;93.83;95555.84;5044669;28;20586;-67
2021/09/14 05:22:15;;;;;;;5.50;3.60;;;;;;;12.69;93.74;95557.88;5016985;28;20264;-66
2021/09/14 05:24:44;;;;;;;4.30;3.90;;;;;;;12.69;93.86;95552.59;5043965;28;20222;-67
2021/09/14 05:27:12;;;;;;;5.70;3.77;;;;;;;12.73;93.71;95554.66;5043286;28;20227;-66
2021/09/14 05:29:42;;;;;;;4.70;4.27;;;;;;;12.81;93.35;95554.47;5020808;28;20647;-67
2021/09/14 05:32:11;;;;;;;2.67;2.47;;;;;;;12.85;93.19;95556.72;5023634;28;20301;-67
2021/09/14 05:34:40;;;;;;;6.77;4.07;;;;;;;12.89;92.96;95553.44;5034705;28;20242;-67
2021/09/14 05:37:08;;;;;;;3.07;2.87;;;;;;;12.94;92.75;95558.16;5019057;28;20224;-67
2021/09/14 05:39:37;;;;;;;4.13;3.70;;;;;;;13.00;92.67;95563.47;5023087;28;20269;-67
2021/09/14 05:42:07;;;;;;;3.83;3.53;;;;;;;13.05;92.30;95558.38;5044157;28;20647;-66
2021/09/14 05:44:36;;;;;;;5.07;3.87;;;;;;;13.15;92.22;95565.94;5025323;28;20743;-66
2021/09/14 05:47:07;;;;;;;6.00;3.20;;;;;;;13.27;92.12;95564.38;5029075;28;20234;-67
2021/09/14 05:49:35;;;;;;;4.13;3.93;;;;;;;13.34;91.64;95561.69;5038138;28;20219;-67
2021/09/14 05:52:04;;;;;;;3.03;2.83;;;;;;;13.38;91.09;95563.75;5040393;28;20215;-67
2021/09/14 05:54:33;;;;;;;3.70;3.40;;;;;;;13.43;90.47;95571.09;5026512;28;20314;-67
2021/09/14 05:57:01;;;;;;;3.87;3.67;;;;;;;13.47;89.59;95572.31;5026671;28;20226;-66
2021/09/14 05:59:30;;;;;;;14.83;5.40;;;;;;;13.51;89.25;95581.50;5020967;28;20257;-68
2021/09/14 06:01:59;;;;;;;3.90;3.70;;;;;;;13.52;89.21;95580.47;5014886;28;20449;-68
2021/09/14 06:04:32;;;;;;;3.30;3.10;;;;;;;13.60;89.00;95576.81;5007425;28;20223;-67
2021/09/14 06:07:01;;;;;;;3.40;3.20;;;;;;;13.66;88.93;95576.00;5021172;28;20258;-66
2021/09/14 06:09:29;;;;;;;3.43;3.10;;;;;;;13.74;88.85;95573.13;5021369;28;20227;-67
2021/09/14 06:11:58;;;;;;;4.70;3.37;;;;;;;13.82;88.92;95575.56;5043149;28;20626;-67
2021/09/14 06:14:26;;;;;;;3.50;3.30;;;;;;;13.92;89.14;95572.50;5040350;28;20369;-67
2021/09/14 06:16:59;;;;;;;7.93;4.90;;;;;;;13.95;89.18;95575.53;5024260;28;20219;-67
2021/09/14 06:19:30;;;;;;;4.40;3.90;;;;;;;14.02;89.50;95575.53;5017406;28;20215;-67
2021/09/14 06:22:01;;;;;;;5.30;4.07;;;;;;;14.15;89.31;95574.69;5024049;28;20245;-67
2021/09/14 06:24:30;;;;;;;3.67;3.47;;;;;;;14.24;89.20;95573.44;5024986;28;20219;-67
2021/09/14 06:26:59;;;;;;;3.30;3.10;;;;;;;14.38;89.22;95569.72;5031759;28;20223;-67
2021/09/14 06:29:27;;;;;;;3.00;2.80;;;;;;;14.52;88.95;95571.31;5018624;28;20234;-67
2021/09/14 06:31:56;;;;;;;5.83;5.30;;;;;;;14.61;88.84;95573.75;5021013;28;20306;-68
2021/09/14 06:34:43;;;;;;;5.10;4.63;;;;;;;14.73;88.61;95574.75;5024192;28;20266;-67
2021/09/14 06:37:13;;;;;;;4.97;4.67;;;;;;;14.87;88.08;95576.28;5032152;28;20229;-66
2021/09/14 06:39:41;;;;;;;5.20;4.43;;;;;;;15.01;87.71;95575.19;5022030;28;20691;-67
2021/09/14 06:42:10;;;;;;;4.67;4.27;;;;;;;15.16;87.32;95576.72;5030237;28;20445;-67
2021/09/14 06:44:42;;;;;;;4.10;3.87;;;;;;;15.30;87.38;95578.28;5027476;28;20279;-67
2021/09/14 06:47:14;;;;;;;4.73;4.37;;;;;;;15.43;87.43;95577.38;5025138;28;20266;-66
2021/09/14 06:49:42;;;;;;;5.03;4.63;;;;;;;15.59;86.74;95575.00;5036851;28;20222;-66
2021/09/14 06:52:13;;;;;;;4.53;4.23;;;;;;;15.73;86.75;95578.41;5046636;28;20211;-67
2021/09/14 06:54:40;;;;;;;4.53;4.23;;;;;;;15.89;86.21;95575.16;5042427;28;20258;-67
2021/09/14 06:57:09;;;;;;;4.47;4.17;;;;;;;16.05;86.25;95576.47;5029273;28;20227;-67
2021/09/14 06:59:37;;;;;;;4.20;3.90;;;;;;;16.21;85.91;95575.09;5036335;28;20735;-65
2021/09/14 07:02:05;;;;;;;3.67;3.37;;;;;;;16.35;85.56;95578.41;5042972;28;20219;-66
2021/09/14 07:04:42;;;;;;;3.37;3.17;;;;;;;16.52;85.29;95574.13;5039947;28;20230;-67
2021/09/14 07:07:10;;;;;;;5.40;4.67;;;;;;;16.69;84.98;95572.50;5037309;28;20218;-67
2021/09/14 07:09:40;;;;;;;5.10;4.70;;;;;;;16.86;84.56;95578.03;5047773;28;20272;-66
2021/09/14 07:12:08;;;;;;;3.87;3.57;;;;;;;17.04;84.52;95586.00;5055917;28;20280;-67
2021/09/14 07:14:37;;;;;;;5.50;4.50;;;;;;;17.18;84.04;95575.94;5038273;28;20946;-67
2021/09/14 07:17:06;;;;;;;4.07;3.87;;;;;;;17.32;84.08;95581.91;5043112;28;20227;-67
2021/09/14 07:19:34;;;;;;;4.70;4.40;;;;;;;17.50;83.50;95581.84;5044090;28;20226;-66
2021/09/14 07:22:02;;;;;;;4.23;3.50;;;;;;;17.63;83.13;95578.16;5044334;28;20782;-66
2021/09/14 07:24:30;;;;;;;5.23;4.90;;;;;;;17.73;83.11;95588.28;5045811;28;20312;-70
2021/09/14 07:27:00;;;;;;;4.53;4.10;;;;;;;17.87;82.39;95585.19;5047944;28;20290;-69
2021/09/14 07:29:31;;;;;;;4.57;4.20;;;;;;;18.00;81.99;95577.97;5046747;28;20313;-69
2021/09/14 07:32:00;;;;;;;5.20;3.73;;;;;;;18.10;81.94;95588.91;5027070;28;20280;-69
2021/09/14 07:34:29;;;;;;;4.33;3.90;;;;;;;18.26;81.13;95593.53;5038982;28;20231;-69
2021/09/14 07:36:57;;;;;;;3.70;3.50;;;;;;;18.41;80.20;95577.84;5045017;28;20277;-69
2021/09/14 07:39:25;;;;;;;3.83;3.60;;;;;;;18.57;80.63;95588.88;5045047;28;20227;-70
2021/09/14 07:41:53;;;;;;;4.93;4.63;;;;;;;18.71;81.17;95584.91;5051826;28;20314;-69
2021/09/14 07:44:23;;;;;;;5.57;5.07;;;;;;;18.78;82.03;95587.47;5033296;28;20297;-69
2021/09/14 07:46:51;;;;;;;6.80;3.83;;;;;;;18.78;79.91;95587.47;5039615;28;20262;-69
2021/09/14 07:49:20;;;;;;;4.13;3.83;;;;;;;19.00;79.16;95589.22;5037200;28;20318;-70
2021/09/14 07:51:48;;;;;;;10.43;4.27;;;;;;;19.17;79.31;95594.63;5043126;28;20402;-69
2021/09/14 07:54:16;;;;;;;4.77;4.43;;;;;;;19.33;78.81;95590.38;5049900;28;20305;-70
2021/09/14 07:56:44;;;;;;;5.27;3.83;;;;;;;19.52;78.06;95581.09;5064384;28;20305;-70
2021/09/14 07:59:13;;;;;;;3.93;3.60;;;;;;;19.78;77.99;95584.22;5044929;28;20217;-70
2021/09/14 08:01:42;;;;;;;4.47;4.27;;;;;;;20.00;77.90;95582.44;5026573;28;20251;-70
2021/09/14 08:04:10;;;;;;;3.80;3.50;;;;;;;20.07;76.50;95582.28;5046065;28;20305;-69
2021/09/14 08:06:38;;;;;;;3.93;3.70;;;;;;;20.23;74.57;95580.63;5043406;28;20308;-69
2021/09/14 08:09:06;;;;;;;2.90;2.70;;;;;;;20.52;75.10;95582.13;5037060;28;20315;-70
2021/09/14 08:11:35;;;;;;;3.30;3.10;;;;;;;20.78;74.34;95577.91;5042537;28;21361;-70
2021/09/14 08:14:04;;;;;;;3.13;3.03;;;;;;;21.07;74.22;95575.84;5044863;28;20215;-70
2021/09/14 08:16:32;;;;;;;4.00;3.80;;;;;;;21.29;71.83;95583.88;5045690;28;20712;-70
2021/09/14 08:19:02;;;;;;;4.70;4.40;;;;;;;21.45;71.64;95582.16;5045245;28;20251;-70
2021/09/14 08:21:30;;;;;;;4.43;4.23;;;;;;;21.66;71.02;95580.47;5041080;28;20219;-70
2021/09/14 08:23:58;;;;;;;4.07;3.73;;;;;;;21.89;70.09;95587.38;5027719;28;20222;-70
2021/09/14 08:26:26;;;;;;;3.47;3.27;;;;;;;22.09;69.49;95588.38;5026631;28;20247;-70
2021/09/14 08:28:55;;;;;;;3.33;3.13;;;;;;;22.31;69.91;95599.03;5045410;28;20251;-70
2021/09/14 08:31:26;;;;;;;2.73;2.63;;;;;;;22.55;70.22;95598.63;5034167;28;20309;-70
2021/09/14 08:33:55;;;;;;;2.87;2.70;;;;;;;22.74;68.85;95594.41;5031943;28;20251;-69
2021/09/14 08:36:25;;;;;;;3.30;3.07;;;;;;;22.80;68.53;95588.00;5025745;28;20230;-70
2021/09/14 08:38:53;;;;;;;3.47;2.97;;;;;;;22.98;66.50;95592.94;5051290;28;20223;-70
2021/09/14 08:41:22;;;;;;;3.67;3.43;;;;;;;23.25;68.08;95589.25;5046055;28;20222;-69
2021/09/14 08:43:51;;;;;;;2.70;2.60;;;;;;;23.52;66.61;95589.88;5042485;28;20347;-68
2021/09/14 08:46:22;;;;;;;3.57;3.37;;;;;;;23.82;65.19;95577.53;5042510;28;20284;-68
2021/09/14 08:48:51;;;;;;;3.87;3.63;;;;;;;24.00;64.71;95578.88;5035591;28;20309;-68
2021/09/14 08:51:19;;;;;;;4.00;3.70;;;;;;;24.24;65.32;95569.16;5025369;28;20280;-68
2021/09/14 08:53:49;;;;;;;3.63;3.30;;;;;;;24.50;64.32;95571.81;5045708;28;20246;-68
2021/09/14 08:56:17;;;;;;;3.63;3.43;;;;;;;24.69;63.55;95567.47;5046550;28;20302;-68
2021/09/14 08:58:56;;;;;;;5.90;4.47;;;;;;;24.90;62.28;95573.59;5040031;28;20218;-69
2021/09/14 09:01:23;;;;;;;4.10;3.70;;;;;;;25.10;62.23;95568.13;5043163;28;20293;-69
2021/09/14 09:03:57;;;;;;;4.25;3.90;;;;;;;25.34;61.37;95570.16;5021232;28;20229;-69
2021/09/14 09:06:33;;;;;;;5.70;4.38;;;;;;;25.60;61.25;95574.31;5027178;28;20214;-68
2021/09/14 09:09:14;;;;;;;4.78;3.60;;;;;;;25.88;60.46;95569.25;5042285;28;20329;-68
2021/09/14 09:11:59;;;;;;;3.63;3.25;;;;;;;26.08;59.92;95563.72;5034953;28;20223;-69
2021/09/14 09:14:37;;;;;;;3.55;3.35;;;;;;;26.31;58.86;95560.22;5030753;28;20305;-69
2021/09/14 09:17:08;;;;;;;3.90;3.22;;;;;;;26.68;58.65;95566.91;5038956;28;20305;-69
2021/09/14 09:19:36;;;;;;;5.22;4.22;;;;;;;26.88;56.49;95566.69;5026112;28;20210;-69
2021/09/14 09:22:10;;;;;;;2.88;2.78;;;;;;;27.12;55.32;95560.47;5041799;28;20222;-69
2021/09/14 09:24:48;;;;;;;3.03;2.83;;;;;;;27.36;55.91;95561.22;5024535;28;20293;-69
2021/09/14 09:27:17;;;;;;;3.00;2.90;;;;;;;27.60;54.89;95560.34;5037677;28;20230;-69
2021/09/14 09:29:56;;;;;;;3.28;2.97;;;;;;;27.88;55.52;95567.50;5039201;28;20227;-69
2021/09/14 09:32:24;;;;;;;2.95;2.83;;;;;;;28.19;53.27;95561.59;5034756;28;20314;-69
2021/09/14 09:34:57;;;;;;;2.22;2.13;;;;;;;28.39;53.30;95561.25;5039349;28;20589;-69
2021/09/14 09:37:25;;;;;;;3.45;3.22;;;;;;;28.48;50.88;95558.66;5041479;28;20246;-69
2021/09/14 09:39:55;;;;;;;2.78;2.67;;;;;;;28.69;50.39;95553.66;5035428;28;20207;-69
2021/09/14 09:42:23;;;;;;;2.85;2.65;;;;;;;28.83;50.42;95546.31;5039668;28;20290;-69
2021/09/14 09:44:55;;;;;;;3.15;3.05;;;;;;;29.06;51.93;95558.09;5035637;28;20230;-70
2021/09/14 09:47:24;;;;;;;2.30;2.20;;;;;;;29.36;52.46;95552.03;5031749;28;20315;-69
2021/09/14 09:49:53;;;;;;;3.80;3.50;;;;;;;29.45;48.37;95543.94;5032609;28;20227;-69
2021/09/14 09:52:21;;;;;;;4.75;2.60;;;;;;;29.64;48.51;95547.34;5042152;28;20385;-70
2021/09/14 09:54:50;;;;;;;3.47;2.55;;;;;;;29.96;48.39;95548.19;5039775;28;20247;-69
2021/09/14 09:57:23;;;;;;;3.00;2.90;;;;;;;30.32;49.31;95544.63;5030393;28;20306;-69
2021/09/14 09:59:50;;;;;;;3.17;2.88;;;;;;;30.53;45.63;95540.22;5037237;28;20227;-69
2021/09/14 10:02:22;;;;;;;3.45;2.78;;;;;;;30.54;45.20;95550.00;5045478;28;20301;-69
2021/09/14 10:04:56;;;;;;;3.80;2.67;;;;;;;30.65;44.02;95537.75;5044254;28;20246;-69
2021/09/14 10:07:27;;;;;;;2.83;2.72;;;;;;;30.83;43.58;95531.25;5039921;28;20222;-70
2021/09/14 10:09:59;;;;;;;2.47;2.38;;;;;;;31.08;45.81;95528.91;5043255;28;20767;-69
2021/09/14 10:12:30;;;;;;;2.88;2.78;;;;;;;31.41;47.00;95542.94;5043521;28;20226;-70
2021/09/14 10:15:05;;;;;;;2.40;2.20;;;;;;;31.59;44.74;95532.84;5042388;28;20601;-70
2021/09/14 10:17:49;;;;;;;2.47;2.38;;;;;;;31.51;43.25;95531.72;5054466;28;20216;-70
2021/09/14 10:20:19;;;;;;;1.88;1.77;;;;;;;31.77;45.08;95537.22;5040862;28;20222;-70
2021/09/14 10:22:58;;;;;;;2.72;2.63;;;;;;;31.79;42.07;95526.78;5046416;28;20217;-70
2021/09/14 10:25:26;;;;;;;2.45;2.35;;;;;;;32.07;42.10;95529.16;5030992;28;20315;-70
2021/09/14 10:28:06;;;;;;;2.78;2.67;;;;;;;32.03;41.34;95520.03;5056055;28;20256;-70
2021/09/14 10:30:35;;;;;;;2.72;2.63;;;;;;;32.09;43.58;95521.44;5054477;28;20301;-70
2021/09/14 10:33:05;;;;;;;3.33;3.13;;;;;;;32.31;42.64;95513.06;5050404;28;20237;-69
2021/09/14 10:35:38;;;;;;;3.17;2.95;;;;;;;32.63;43.03;95513.59;5046706;28;20251;-70
2021/09/14 10:38:09;;;;;;;2.53;2.42;;;;;;;32.93;43.07;95511.72;5040981;28;20256;-70
2021/09/14 10:40:45;;;;;;;2.75;2.58;;;;;;;33.16;43.10;95514.97;5050898;28;20230;-69
2021/09/14 10:43:26;;;;;;;4.68;2.45;;;;;;;33.03;38.45;95517.63;5046309;28;20317;-70
2021/09/14 10:45:55;;;;;;;2.90;2.58;;;;;;;32.98;39.67;95512.31;5046403;28;20261;-71
2021/09/14 10:48:26;;;;;;;3.00;2.90;;;;;;;32.91;38.80;95511.22;5052781;28;20226;-70
2021/09/14 10:50:56;;;;;;;2.25;2.15;;;;;;;32.82;40.31;95511.25;5042957;28;20230;-70
2021/09/14 10:53:26;;;;;;;2.63;2.53;;;;;;;32.96;40.14;95511.84;5050322;28;20223;-70
2021/09/14 10:55:56;;;;;;;2.47;2.38;;;;;;;33.14;38.99;95511.75;5056501;28;20666;-69
2021/09/14 10:58:26;;;;;;;2.75;2.65;;;;;;;33.23;39.52;95507.84;5046685;28;20280;-69
2021/09/14 11:00:55;;;;;;;2.70;2.60;;;;;;;33.46;43.63;95516.53;5049139;28;20658;-69
2021/09/14 11:03:23;;;;;;;2.70;2.60;;;;;;;33.83;43.26;95508.50;5054476;28;20211;-69
2021/09/14 11:05:53;;;;;;;3.85;3.00;;;;;;;33.94;39.83;95516.03;5044156;28;20768;-69
2021/09/14 11:08:26;;;;;;;2.50;2.40;;;;;;;33.77;38.70;95509.88;5047945;28;20274;-70
2021/09/14 11:10:59;;;;;;;2.58;2.47;;;;;;;33.83;38.32;95508.50;5043338;28;20302;-69
2021/09/14 11:13:30;;;;;;;2.63;2.53;;;;;;;33.67;39.00;95500.94;5047193;28;20234;-70
2021/09/14 11:16:00;;;;;;;2.65;2.55;;;;;;;33.72;40.33;95512.78;5043998;28;20219;-71
2021/09/14 11:18:29;;;;;;;2.00;1.90;;;;;;;33.56;38.15;95509.84;5043780;28;20218;-71
2021/09/14 11:21:07;;;;;;;2.20;2.10;;;;;;;33.50;38.30;95506.53;5043107;28;20493;-71
2021/09/14 11:23:35;;;;;;;4.32;2.45;;;;;;;33.44;37.51;95513.34;5046242;28;20242;-70
2021/09/14 11:26:04;;;;;;;2.70;2.53;;;;;;;33.30;38.26;95507.31;5039500;28;20732;-69
2021/09/14 11:28:34;;;;;;;2.58;2.47;;;;;;;33.24;39.65;95505.91;5045679;28;20233;-69
2021/09/14 11:31:03;;;;;;;2.53;2.42;;;;;;;33.12;38.64;95505.81;5044719;28;20215;-70
2021/09/14 11:33:32;;;;;;;2.38;2.28;;;;;;;32.80;39.68;95505.31;5048294;28;20317;-69
2021/09/14 11:36:01;;;;;;;2.25;2.15;;;;;;;32.13;40.58;95508.75;5044510;28;20313;-69
2021/09/14 11:38:29;;;;;;;3.50;2.97;;;;;;;31.47;41.70;95508.16;5040381;28;20280;-69
2021/09/14 11:41:00;;;;;;;2.53;2.42;;;;;;;31.12;43.92;95508.09;5045830;28;20215;-69
2021/09/14 11:43:30;;;;;;;1.92;1.70;;;;;;;30.73;43.48;95508.94;5049082;28;20237;-69
2021/09/14 11:45:59;;;;;;;2.65;2.45;;;;;;;30.40;44.06;95508.47;5049860;28;20653;-69
2021/09/14 11:48:29;;;;;;;2.20;2.03;;;;;;;30.12;43.58;95514.09;5044281;28;20302;-69
2021/09/14 11:51:05;;;;;;;3.15;3.05;;;;;;;29.88;43.73;95513.56;5041351;28;20309;-69
2021/09/14 11:53:34;;;;;;;2.65;2.45;;;;;;;29.60;46.18;95507.44;5048422;28;20310;-69
2021/09/14 11:56:11;;;;;;;2.35;2.25;;;;;;;29.38;46.58;95510.94;5049120;28;20653;-69
2021/09/14 11:58:42;;;;;;;2.78;2.67;;;;;;;29.18;47.72;95507.56;5027285;28;20231;-69
2021/09/14 12:01:13;;;;;;;3.47;3.28;;;;;;;28.78;49.22;95513.81;5037577;28;20242;-69
2021/09/14 12:03:44;;;;;;;2.58;2.47;;;;;;;28.95;47.72;95505.88;5039038;28;20219;-69
2021/09/14 12:06:21;;;;;;;2.38;2.28;;;;;;;28.79;47.09;95510.00;5038081;28;20277;-69
2021/09/14 12:08:49;;;;;;;2.17;2.08;;;;;;;28.79;47.42;95510.00;5045421;28;20915;-69
2021/09/14 12:11:26;;;;;;;2.85;2.40;;;;;;;28.69;47.63;95510.19;5047160;28;20218;-69
2021/09/14 12:13:56;;;;;;;3.53;3.22;;;;;;;28.49;47.46;95501.34;5043466;28;20248;-69
2021/09/14 12:16:27;;;;;;;3.30;3.17;;;;;;;28.51;48.07;95510.00;5043995;28;20317;-69
2021/09/14 12:18:56;;;;;;;4.65;2.85;;;;;;;28.02;49.81;95508.69;5028457;28;20230;-68
2021/09/14 12:21:25;;;;;;;3.40;3.20;;;;;;;27.99;50.68;95497.66;5026091;28;20234;-68
2021/09/14 12:23:54;;;;;;;2.92;2.75;;;;;;;28.31;50.80;95494.91;5045197;28;20234;-68
2021/09/14 12:26:24;;;;;;;3.28;2.30;;;;;;;28.39;48.87;95493.41;5044438;28;20314;-68
2021/09/14 12:28:55;;;;;;;2.58;2.47;;;;;;;28.50;47.72;95492.09;5041518;28;20226;-69
2021/09/14 12:31:23;;;;;;;4.15;3.00;;;;;;;28.54;47.50;95493.13;5046577;28;20722;-69
2021/09/14 12:33:53;;;;;;;2.50;2.40;;;;;;;28.59;48.33;95479.41;5046171;28;20306;-69
2021/09/14 12:36:21;;;;;;;3.03;2.85;;;;;;;28.19;50.23;95485.63;5035826;28;20305;-68